sensor_id;sensor_type;location;lat;lon;timestamp;pressure;altitude;pressure_sealevel;temperature;humidity
71504;BME280;59323;50.874;7.028;2023-01-30T00:01:17;101757.94;;;2.19;94.24
71504;BME280;59323;50.874;7.028;2023-01-30T00:03:43;101747.22;;;2.19;94.38
71504;BME280;59323;50.874;7.028;2023-01-30T00:06:09;101753.66;;;2.18;94.56
71504;BME280;59323;50.874;7.028;2023-01-30T00:08:34;101752.56;;;2.19;94.83
71504;BME280;59323;50.874;7.028;2023-01-30T00:11:04;101738.66;;;2.17;94.70
71504;BME280;59323;50.874;7.028;2023-01-30T00:13:30;101749.88;;;2.19;94.98
71504;BME280;59323;50.874;7.028;2023-01-30T00:15:56;101726.84;;;2.18;95.50
71504;BME280;59323;50.874;7.028;2023-01-30T00:18:21;101721.47;;;2.18;95.26
71504;BME280;59323;50.874;7.028;2023-01-30T00:20:46;101709.16;;;2.17;95.37
71504;BME280;59323;50.874;7.028;2023-01-30T00:23:12;101703.00;;;2.16;95.94
71504;BME280;59323;50.874;7.028;2023-01-30T00:25:37;101697.88;;;2.20;95.99
71504;BME280;59323;50.874;7.028;2023-01-30T00:28:02;101703.19;;;2.25;96.14
71504;BME280;59323;50.874;7.028;2023-01-30T00:30:28;101700.22;;;2.27;96.08
71504;BME280;59323;50.874;7.028;2023-01-30T00:32:58;101687.88;;;2.26;96.49
71504;BME280;59323;50.874;7.028;2023-01-30T00:35:24;101692.38;;;2.30;96.46
71504;BME280;59323;50.874;7.028;2023-01-30T00:37:56;101695.88;;;2.31;96.33
71504;BME280;59323;50.874;7.028;2023-01-30T00:40:24;101690.75;;;2.34;96.31
71504;BME280;59323;50.874;7.028;2023-01-30T00:42:49;101692.91;;;2.32;96.57
71504;BME280;59323;50.874;7.028;2023-01-30T00:45:33;101684.34;;;2.30;96.38
71504;BME280;59323;50.874;7.028;2023-01-30T00:48:17;101676.81;;;2.32;96.84
71504;BME280;59323;50.874;7.028;2023-01-30T00:50:43;101664.72;;;2.35;96.56
71504;BME280;59323;50.874;7.028;2023-01-30T00:53:12;101677.84;;;2.36;97.29
71504;BME280;59323;50.874;7.028;2023-01-30T00:55:38;101669.78;;;2.36;97.11
71504;BME280;59323;50.874;7.028;2023-01-30T00:58:04;101664.44;;;2.36;96.67
71504;BME280;59323;50.874;7.028;2023-01-30T01:00:30;101670.03;;;2.40;97.25
71504;BME280;59323;50.874;7.028;2023-01-30T01:02:55;101660.09;;;2.40;96.80
71504;BME280;59323;50.874;7.028;2023-01-30T01:05:20;101667.84;;;2.42;97.61
71504;BME280;59323;50.874;7.028;2023-01-30T01:07:46;101648.00;;;2.43;97.30
71504;BME280;59323;50.874;7.028;2023-01-30T01:10:11;101642.06;;;2.46;97.83
71504;BME280;59323;50.874;7.028;2023-01-30T01:12:44;101622.19;;;2.47;97.24
71504;BME280;59323;50.874;7.028;2023-01-30T01:15:11;101632.63;;;2.48;97.73
71504;BME280;59323;50.874;7.028;2023-01-30T01:17:38;101629.44;;;2.46;97.91
71504;BME280;59323;50.874;7.028;2023-01-30T01:20:04;101640.69;;;2.48;98.13
71504;BME280;59323;50.874;7.028;2023-01-30T01:22:29;101644.59;;;2.56;97.86
71504;BME280;59323;50.874;7.028;2023-01-30T01:24:55;101644.91;;;2.54;97.91
71504;BME280;59323;50.874;7.028;2023-01-30T01:27:20;101637.94;;;2.53;98.34
71504;BME280;59323;50.874;7.028;2023-01-30T01:29:45;101630.41;;;2.55;98.46
71504;BME280;59323;50.874;7.028;2023-01-30T01:32:11;101633.31;;;2.59;98.21
71504;BME280;59323;50.874;7.028;2023-01-30T01:34:36;101638.66;;;2.59;99.11
71504;BME280;59323;50.874;7.028;2023-01-30T01:37:01;101630.88;;;2.63;98.76
71504;BME280;59323;50.874;7.028;2023-01-30T01:39:27;101631.81;;;2.72;99.43
71504;BME280;59323;50.874;7.028;2023-01-30T01:42:12;101631.53;;;2.73;99.63
71504;BME280;59323;50.874;7.028;2023-01-30T01:45:22;101622.25;;;2.84;100.00
71504;BME280;59323;50.874;7.028;2023-01-30T01:48:09;101619.13;;;2.96;100.00
71504;BME280;59323;50.874;7.028;2023-01-30T01:53:15;101610.91;;;3.25;100.00
71504;BME280;59323;50.874;7.028;2023-01-30T01:55:42;101616.03;;;3.40;100.00
71504;BME280;59323;50.874;7.028;2023-01-30T01:58:15;101609.41;;;3.52;100.00
71504;BME280;59323;50.874;7.028;2023-01-30T02:00:42;101608.03;;;3.68;99.22
71504;BME280;59323;50.874;7.028;2023-01-30T02:03:14;101606.56;;;3.75;98.26
71504;BME280;59323;50.874;7.028;2023-01-30T02:05:48;101600.19;;;3.85;98.01
71504;BME280;59323;50.874;7.028;2023-01-30T02:08:18;101599.91;;;3.87;97.70
71504;BME280;59323;50.874;7.028;2023-01-30T02:11:04;101586.09;;;3.93;97.78
71504;BME280;59323;50.874;7.028;2023-01-30T02:13:31;101584.78;;;3.91;96.68
71504;BME280;59323;50.874;7.028;2023-01-30T02:15:57;101592.56;;;3.92;97.31
71504;BME280;59323;50.874;7.028;2023-01-30T02:18:24;101590.56;;;3.98;96.40
71504;BME280;59323;50.874;7.028;2023-01-30T02:21:05;101574.03;;;4.04;96.70
71504;BME280;59323;50.874;7.028;2023-01-30T02:26:46;101559.50;;;4.05;96.73
71504;BME280;59323;50.874;7.028;2023-01-30T02:37:48;101546.53;;;4.21;96.16
71504;BME280;59323;50.874;7.028;2023-01-30T02:40:35;101541.44;;;4.20;96.27
71504;BME280;59323;50.874;7.028;2023-01-30T02:43:11;101538.44;;;4.21;95.83
71504;BME280;59323;50.874;7.028;2023-01-30T02:48:28;101522.09;;;4.31;95.56
71504;BME280;59323;50.874;7.028;2023-01-30T02:51:10;101519.09;;;4.33;95.54
71504;BME280;59323;50.874;7.028;2023-01-30T02:53:38;101521.00;;;4.32;95.70
71504;BME280;59323;50.874;7.028;2023-01-30T02:56:04;101514.03;;;4.31;96.25
71504;BME280;59323;50.874;7.028;2023-01-30T02:58:35;101510.22;;;4.32;95.79
71504;BME280;59323;50.874;7.028;2023-01-30T03:03:59;101507.66;;;4.27;96.64
71504;BME280;59323;50.874;7.028;2023-01-30T03:06:44;101499.28;;;4.29;96.86
71504;BME280;59323;50.874;7.028;2023-01-30T03:12:32;101480.63;;;4.32;96.94
71504;BME280;59323;50.874;7.028;2023-01-30T03:15:24;101491.09;;;4.34;96.94
71504;BME280;59323;50.874;7.028;2023-01-30T03:17:51;101472.56;;;4.32;97.17
71504;BME280;59323;50.874;7.028;2023-01-30T03:20:18;101475.38;;;4.27;96.92
71504;BME280;59323;50.874;7.028;2023-01-30T03:22:44;101480.53;;;4.37;96.86
71504;BME280;59323;50.874;7.028;2023-01-30T03:25:13;101481.00;;;4.39;96.59
71504;BME280;59323;50.874;7.028;2023-01-30T03:27:39;101472.53;;;4.46;95.98
71504;BME280;59323;50.874;7.028;2023-01-30T03:30:05;101469.72;;;4.51;95.65
71504;BME280;59323;50.874;7.028;2023-01-30T03:32:31;101472.41;;;4.51;94.67
71504;BME280;59323;50.874;7.028;2023-01-30T03:34:56;101467.50;;;4.53;95.50
71504;BME280;59323;50.874;7.028;2023-01-30T03:37:21;101464.03;;;4.53;95.62
71504;BME280;59323;50.874;7.028;2023-01-30T03:39:47;101466.13;;;4.56;95.44
71504;BME280;59323;50.874;7.028;2023-01-30T03:42:12;101465.34;;;4.55;95.08
71504;BME280;59323;50.874;7.028;2023-01-30T03:44:37;101463.72;;;4.54;94.75
71504;BME280;59323;50.874;7.028;2023-01-30T03:47:03;101451.44;;;4.62;94.77
71504;BME280;59323;50.874;7.028;2023-01-30T03:49:28;101444.28;;;4.57;95.19
71504;BME280;59323;50.874;7.028;2023-01-30T03:51:53;101443.69;;;4.60;95.58
71504;BME280;59323;50.874;7.028;2023-01-30T03:54:19;101430.03;;;4.57;94.98
71504;BME280;59323;50.874;7.028;2023-01-30T03:56:44;101421.97;;;4.57;95.52
71504;BME280;59323;50.874;7.028;2023-01-30T03:59:10;101424.34;;;4.58;95.37
71504;BME280;59323;50.874;7.028;2023-01-30T04:01:35;101418.06;;;4.63;96.00
71504;BME280;59323;50.874;7.028;2023-01-30T04:04:00;101415.06;;;4.64;94.61
71504;BME280;59323;50.874;7.028;2023-01-30T04:06:25;101409.06;;;4.67;95.43
71504;BME280;59323;50.874;7.028;2023-01-30T04:08:52;101403.97;;;4.66;94.95
71504;BME280;59323;50.874;7.028;2023-01-30T04:11:17;101404.47;;;4.68;95.44
71504;BME280;59323;50.874;7.028;2023-01-30T04:13:43;101397.81;;;4.65;95.16
71504;BME280;59323;50.874;7.028;2023-01-30T04:16:20;101401.47;;;4.69;95.21
71504;BME280;59323;50.874;7.028;2023-01-30T04:18:46;101393.38;;;4.69;95.49
71504;BME280;59323;50.874;7.028;2023-01-30T04:21:12;101398.28;;;4.67;95.13
71504;BME280;59323;50.874;7.028;2023-01-30T04:23:38;101404.81;;;4.75;94.98
71504;BME280;59323;50.874;7.028;2023-01-30T04:26:04;101385.50;;;4.73;95.26
71504;BME280;59323;50.874;7.028;2023-01-30T04:28:30;101370.13;;;4.73;95.31
71504;BME280;59323;50.874;7.028;2023-01-30T04:30:55;101365.06;;;4.72;95.95
71504;BME280;59323;50.874;7.028;2023-01-30T04:33:20;101369.03;;;4.74;95.37
71504;BME280;59323;50.874;7.028;2023-01-30T04:35:53;101368.72;;;4.76;95.96
71504;BME280;59323;50.874;7.028;2023-01-30T04:38:19;101366.69;;;4.82;96.53
71504;BME280;59323;50.874;7.028;2023-01-30T04:40:48;101374.94;;;4.85;96.35
71504;BME280;59323;50.874;7.028;2023-01-30T04:43:15;101377.63;;;4.85;96.05
71504;BME280;59323;50.874;7.028;2023-01-30T04:45:44;101370.03;;;4.87;96.10
71504;BME280;59323;50.874;7.028;2023-01-30T04:48:10;101385.09;;;4.88;96.40
71504;BME280;59323;50.874;7.028;2023-01-30T04:50:36;101371.19;;;4.95;96.47
71504;BME280;59323;50.874;7.028;2023-01-30T04:53:01;101370.38;;;4.94;96.98
71504;BME280;59323;50.874;7.028;2023-01-30T04:55:26;101386.22;;;4.96;96.58
71504;BME280;59323;50.874;7.028;2023-01-30T04:57:52;101375.16;;;4.97;96.86
71504;BME280;59323;50.874;7.028;2023-01-30T05:00:17;101376.91;;;5.02;96.12
71504;BME280;59323;50.874;7.028;2023-01-30T05:02:43;101365.03;;;5.03;96.87
71504;BME280;59323;50.874;7.028;2023-01-30T05:05:08;101363.31;;;5.07;97.14
71504;BME280;59323;50.874;7.028;2023-01-30T05:07:33;101358.88;;;5.11;96.70
71504;BME280;59323;50.874;7.028;2023-01-30T05:09:59;101356.84;;;5.17;97.34
71504;BME280;59323;50.874;7.028;2023-01-30T05:12:24;101363.50;;;5.19;96.52
71504;BME280;59323;50.874;7.028;2023-01-30T05:14:49;101347.16;;;5.16;96.84
71504;BME280;59323;50.874;7.028;2023-01-30T05:17:15;101348.75;;;5.17;96.85
71504;BME280;59323;50.874;7.028;2023-01-30T05:19:40;101351.44;;;5.17;97.74
71504;BME280;59323;50.874;7.028;2023-01-30T05:22:05;101342.09;;;5.14;97.76
71504;BME280;59323;50.874;7.028;2023-01-30T05:24:31;101342.88;;;5.15;98.16
71504;BME280;59323;50.874;7.028;2023-01-30T05:26:56;101343.50;;;5.12;97.79
71504;BME280;59323;50.874;7.028;2023-01-30T05:29:21;101350.50;;;5.13;98.62
71504;BME280;59323;50.874;7.028;2023-01-30T05:31:47;101352.34;;;5.03;99.03
71504;BME280;59323;50.874;7.028;2023-01-30T05:34:12;101354.56;;;5.01;100.00
71504;BME280;59323;50.874;7.028;2023-01-30T05:36:37;101339.81;;;4.99;100.00
71504;BME280;59323;50.874;7.028;2023-01-30T05:39:03;101336.81;;;5.00;100.00
71504;BME280;59323;50.874;7.028;2023-01-30T05:41:29;101325.56;;;4.98;100.00
71504;BME280;59323;50.874;7.028;2023-01-30T05:43:54;101333.97;;;4.97;100.00
71504;BME280;59323;50.874;7.028;2023-01-30T05:46:20;101344.06;;;4.91;100.00
71504;BME280;59323;50.874;7.028;2023-01-30T05:48:45;101339.31;;;4.88;100.00
71504;BME280;59323;50.874;7.028;2023-01-30T05:51:19;101339.63;;;4.87;100.00
71504;BME280;59323;50.874;7.028;2023-01-30T05:53:45;101334.38;;;4.82;100.00
71504;BME280;59323;50.874;7.028;2023-01-30T05:56:11;101337.56;;;4.84;100.00
71504;BME280;59323;50.874;7.028;2023-01-30T05:58:36;101337.06;;;4.82;100.00
71504;BME280;59323;50.874;7.028;2023-01-30T06:01:06;101334.69;;;4.80;100.00
71504;BME280;59323;50.874;7.028;2023-01-30T06:03:35;101339.44;;;4.83;100.00
71504;BME280;59323;50.874;7.028;2023-01-30T06:06:01;101355.13;;;4.81;100.00
71504;BME280;59323;50.874;7.028;2023-01-30T06:08:28;101347.03;;;4.81;100.00
71504;BME280;59323;50.874;7.028;2023-01-30T06:10:53;101337.56;;;4.84;100.00
71504;BME280;59323;50.874;7.028;2023-01-30T06:13:19;101349.75;;;4.81;100.00
71504;BME280;59323;50.874;7.028;2023-01-30T06:15:44;101333.91;;;4.80;100.00
71504;BME280;59323;50.874;7.028;2023-01-30T06:18:10;101338.34;;;4.84;100.00
71504;BME280;59323;50.874;7.028;2023-01-30T06:20:35;101329.78;;;4.82;100.00
71504;BME280;59323;50.874;7.028;2023-01-30T06:23:01;101334.84;;;4.84;100.00
71504;BME280;59323;50.874;7.028;2023-01-30T06:25:26;101342.31;;;4.87;100.00
71504;BME280;59323;50.874;7.028;2023-01-30T06:27:51;101345.31;;;4.85;100.00
71504;BME280;59323;50.874;7.028;2023-01-30T06:30:17;101348.19;;;4.89;100.00
71504;BME280;59323;50.874;7.028;2023-01-30T06:32:42;101342.00;;;4.88;100.00
71504;BME280;59323;50.874;7.028;2023-01-30T06:35:08;101355.00;;;4.86;100.00
71504;BME280;59323;50.874;7.028;2023-01-30T06:37:33;101359.75;;;4.89;100.00
71504;BME280;59323;50.874;7.028;2023-01-30T06:39:58;101372.94;;;4.99;100.00
71504;BME280;59323;50.874;7.028;2023-01-30T06:42:24;101359.78;;;4.98;100.00
71504;BME280;59323;50.874;7.028;2023-01-30T06:44:49;101361.06;;;5.00;100.00
71504;BME280;59323;50.874;7.028;2023-01-30T06:47:14;101365.00;;;4.94;100.00
71504;BME280;59323;50.874;7.028;2023-01-30T06:49:39;101354.22;;;4.94;100.00
71504;BME280;59323;50.874;7.028;2023-01-30T06:52:05;101363.41;;;4.93;100.00
71504;BME280;59323;50.874;7.028;2023-01-30T06:54:30;101362.78;;;4.96;100.00
71504;BME280;59323;50.874;7.028;2023-01-30T06:56:56;101361.19;;;4.95;100.00
71504;BME280;59323;50.874;7.028;2023-01-30T06:59:21;101368.66;;;4.98;100.00
71504;BME280;59323;50.874;7.028;2023-01-30T07:01:46;101353.59;;;4.97;100.00
71504;BME280;59323;50.874;7.028;2023-01-30T07:04:12;101367.06;;;4.97;100.00
71504;BME280;59323;50.874;7.028;2023-01-30T07:06:37;101384.16;;;4.93;100.00
71504;BME280;59323;50.874;7.028;2023-01-30T07:09:02;101382.91;;;4.99;100.00
71504;BME280;59323;50.874;7.028;2023-01-30T07:11:28;101383.22;;;4.97;100.00
71504;BME280;59323;50.874;7.028;2023-01-30T07:13:53;101393.69;;;4.99;100.00
71504;BME280;59323;50.874;7.028;2023-01-30T07:16:18;101409.06;;;4.98;100.00
71504;BME280;59323;50.874;7.028;2023-01-30T07:18:44;101385.75;;;4.94;100.00
71504;BME280;59323;50.874;7.028;2023-01-30T07:21:09;101391.13;;;4.94;100.00
71504;BME280;59323;50.874;7.028;2023-01-30T07:23:34;101389.41;;;4.98;100.00
71504;BME280;59323;50.874;7.028;2023-01-30T07:26:04;101393.97;;;4.89;100.00
71504;BME280;59323;50.874;7.028;2023-01-30T07:28:30;101398.06;;;4.86;100.00
71504;BME280;59323;50.874;7.028;2023-01-30T07:30:59;101405.03;;;4.87;100.00
71504;BME280;59323;50.874;7.028;2023-01-30T07:33:24;101392.69;;;4.86;100.00
71504;BME280;59323;50.874;7.028;2023-01-30T07:35:50;101389.63;;;4.79;100.00
71504;BME280;59323;50.874;7.028;2023-01-30T07:38:15;101376.78;;;4.76;100.00
71504;BME280;59323;50.874;7.028;2023-01-30T07:40:40;101398.03;;;4.77;100.00
71504;BME280;59323;50.874;7.028;2023-01-30T07:43:13;101398.63;;;4.74;100.00
71504;BME280;59323;50.874;7.028;2023-01-30T07:45:40;101396.44;;;4.76;100.00
71504;BME280;59323;50.874;7.028;2023-01-30T07:48:06;101395.94;;;4.74;100.00
71504;BME280;59323;50.874;7.028;2023-01-30T07:50:32;101407.03;;;4.73;100.00
71504;BME280;59323;50.874;7.028;2023-01-30T07:52:58;101410.34;;;4.70;100.00
71504;BME280;59323;50.874;7.028;2023-01-30T07:55:23;101411.31;;;4.74;100.00
71504;BME280;59323;50.874;7.028;2023-01-30T07:57:48;101404.66;;;4.71;100.00
71504;BME280;59323;50.874;7.028;2023-01-30T08:00:14;101411.31;;;4.74;100.00
71504;BME280;59323;50.874;7.028;2023-01-30T08:02:40;101403.22;;;4.74;100.00
71504;BME280;59323;50.874;7.028;2023-01-30T08:05:06;101408.78;;;4.77;100.00
71504;BME280;59323;50.874;7.028;2023-01-30T08:07:32;101418.28;;;4.75;100.00
71504;BME280;59323;50.874;7.028;2023-01-30T08:09:57;101422.56;;;4.76;100.00
71504;BME280;59323;50.874;7.028;2023-01-30T08:12:22;101417.66;;;4.78;100.00
71504;BME280;59323;50.874;7.028;2023-01-30T08:14:48;101415.16;;;4.82;100.00
71504;BME280;59323;50.874;7.028;2023-01-30T08:17:13;101414.22;;;4.86;100.00
71504;BME280;59323;50.874;7.028;2023-01-30T08:19:38;101416.31;;;4.89;100.00
71504;BME280;59323;50.874;7.028;2023-01-30T08:22:04;101421.06;;;4.92;100.00
71504;BME280;59323;50.874;7.028;2023-01-30T08:24:29;101412.69;;;4.94;100.00
71504;BME280;59323;50.874;7.028;2023-01-30T08:26:54;101417.28;;;4.93;100.00
71504;BME280;59323;50.874;7.028;2023-01-30T08:29:20;101415.59;;;5.06;100.00
71504;BME280;59323;50.874;7.028;2023-01-30T08:31:45;101414.81;;;5.14;100.00
71504;BME280;59323;50.874;7.028;2023-01-30T08:34:10;101404.53;;;5.16;100.00
71504;BME280;59323;50.874;7.028;2023-01-30T08:36:35;101407.41;;;5.20;100.00
71504;BME280;59323;50.874;7.028;2023-01-30T08:39:01;101410.16;;;5.28;100.00
71504;BME280;59323;50.874;7.028;2023-01-30T08:41:26;101420.16;;;5.36;100.00
71504;BME280;59323;50.874;7.028;2023-01-30T08:43:53;101420.81;;;5.42;100.00
71504;BME280;59323;50.874;7.028;2023-01-30T08:46:18;101430.22;;;5.53;100.00
71504;BME280;59323;50.874;7.028;2023-01-30T08:48:46;101437.03;;;5.59;100.00
71504;BME280;59323;50.874;7.028;2023-01-30T08:51:12;101436.91;;;5.64;100.00
71504;BME280;59323;50.874;7.028;2023-01-30T08:53:37;101438.97;;;5.67;100.00
71504;BME280;59323;50.874;7.028;2023-01-30T08:56:02;101437.25;;;5.80;100.00
71504;BME280;59323;50.874;7.028;2023-01-30T08:58:28;101436.13;;;5.81;100.00
71504;BME280;59323;50.874;7.028;2023-01-30T09:00:53;101447.00;;;5.98;100.00
71504;BME280;59323;50.874;7.028;2023-01-30T09:03:19;101427.03;;;6.17;100.00
71504;BME280;59323;50.874;7.028;2023-01-30T09:05:44;101438.94;;;6.33;100.00
71504;BME280;59323;50.874;7.028;2023-01-30T09:08:10;101445.63;;;6.53;100.00
71504;BME280;59323;50.874;7.028;2023-01-30T09:10:36;101444.94;;;6.73;99.30
71504;BME280;59323;50.874;7.028;2023-01-30T09:13:01;101436.97;;;6.85;98.08
71504;BME280;59323;50.874;7.028;2023-01-30T09:15:27;101450.47;;;6.94;96.42
71504;BME280;59323;50.874;7.028;2023-01-30T09:17:52;101440.09;;;7.05;95.84
71504;BME280;59323;50.874;7.028;2023-01-30T09:20:17;101437.53;;;7.17;92.56
71504;BME280;59323;50.874;7.028;2023-01-30T09:22:45;101433.50;;;7.31;94.91
71504;BME280;59323;50.874;7.028;2023-01-30T09:25:10;101443.78;;;7.47;92.72
71504;BME280;59323;50.874;7.028;2023-01-30T09:27:36;101440.66;;;7.66;92.83
71504;BME280;59323;50.874;7.028;2023-01-30T09:30:02;101461.75;;;7.81;88.26
71504;BME280;59323;50.874;7.028;2023-01-30T09:32:28;101458.34;;;7.92;87.72
71504;BME280;59323;50.874;7.028;2023-01-30T09:34:53;101448.91;;;7.99;85.88
71504;BME280;59323;50.874;7.028;2023-01-30T09:37:18;101441.50;;;8.08;84.39
71504;BME280;59323;50.874;7.028;2023-01-30T09:39:44;101430.81;;;8.11;84.69
71504;BME280;59323;50.874;7.028;2023-01-30T09:42:39;101439.00;;;8.23;84.27
71504;BME280;59323;50.874;7.028;2023-01-30T09:56:16;101433.94;;;8.43;78.96
71504;BME280;59323;50.874;7.028;2023-01-30T09:58:47;101444.25;;;8.49;79.32
71504;BME280;59323;50.874;7.028;2023-01-30T10:01:50;101448.66;;;8.54;78.42
71504;BME280;59323;50.874;7.028;2023-01-30T10:04:34;101451.59;;;8.49;78.27
71504;BME280;59323;50.874;7.028;2023-01-30T10:07:15;101456.72;;;8.42;77.85
71504;BME280;59323;50.874;7.028;2023-01-30T10:10:02;101465.78;;;8.46;77.31
71504;BME280;59323;50.874;7.028;2023-01-30T10:26:29;101458.84;;;8.36;73.87
71504;BME280;59323;50.874;7.028;2023-01-30T10:31:29;101468.53;;;8.37;75.83
71504;BME280;59323;50.874;7.028;2023-01-30T10:34:03;101464.38;;;8.40;76.48
71504;BME280;59323;50.874;7.028;2023-01-30T10:36:41;101466.00;;;8.32;74.52
71504;BME280;59323;50.874;7.028;2023-01-30T10:43:11;101476.84;;;8.11;74.81
71504;BME280;59323;50.874;7.028;2023-01-30T10:45:12;101459.78;;;7.90;75.78
71504;BME280;59323;50.874;7.028;2023-01-30T10:50:18;101468.25;;;7.80;76.57
71504;BME280;59323;50.874;7.028;2023-01-30T10:52:51;101462.25;;;7.74;77.15
71504;BME280;59323;50.874;7.028;2023-01-30T10:55:37;101470.41;;;7.66;78.06
71504;BME280;59323;50.874;7.028;2023-01-30T11:01:03;101483.41;;;7.72;75.64
71504;BME280;59323;50.874;7.028;2023-01-30T11:03:39;101488.34;;;7.70;76.32
71504;BME280;59323;50.874;7.028;2023-01-30T11:06:11;101478.06;;;7.63;75.84
71504;BME280;59323;50.874;7.028;2023-01-30T11:08:37;101482.00;;;7.66;74.91
71504;BME280;59323;50.874;7.028;2023-01-30T11:11:48;101476.00;;;7.60;75.72
71504;BME280;59323;50.874;7.028;2023-01-30T11:14:14;101494.59;;;7.62;76.34
71504;BME280;59323;50.874;7.028;2023-01-30T11:16:46;101484.13;;;7.60;75.42
71504;BME280;59323;50.874;7.028;2023-01-30T11:19:13;101485.88;;;7.56;74.97
71504;BME280;59323;50.874;7.028;2023-01-30T11:21:40;101485.28;;;7.51;76.86
71504;BME280;59323;50.874;7.028;2023-01-30T11:24:37;101499.13;;;7.49;76.48
71504;BME280;59323;50.874;7.028;2023-01-30T11:27:24;101478.94;;;7.47;76.25
71504;BME280;59323;50.874;7.028;2023-01-30T11:30:02;101479.06;;;7.50;74.79
71504;BME280;59323;50.874;7.028;2023-01-30T11:32:28;101484.50;;;7.42;75.49
71504;BME280;59323;50.874;7.028;2023-01-30T11:37:39;101491.38;;;7.39;76.79
71504;BME280;59323;50.874;7.028;2023-01-30T11:42:47;101489.16;;;7.32;75.45
71504;BME280;59323;50.874;7.028;2023-01-30T11:45:13;101484.25;;;7.26;75.98
71504;BME280;59323;50.874;7.028;2023-01-30T11:47:52;101487.13;;;7.21;77.35
71504;BME280;59323;50.874;7.028;2023-01-30T11:50:20;101479.16;;;7.24;75.67
71504;BME280;59323;50.874;7.028;2023-01-30T11:52:46;101465.66;;;7.24;75.77
71504;BME280;59323;50.874;7.028;2023-01-30T11:55:14;101465.03;;;7.19;77.04
71504;BME280;59323;50.874;7.028;2023-01-30T11:57:43;101469.78;;;7.13;78.20
71504;BME280;59323;50.874;7.028;2023-01-30T12:00:16;101468.38;;;7.16;78.12
71504;BME280;59323;50.874;7.028;2023-01-30T12:02:44;101476.31;;;7.21;77.56
71504;BME280;59323;50.874;7.028;2023-01-30T12:07:52;101465.66;;;7.24;77.03
71504;BME280;59323;50.874;7.028;2023-01-30T12:10:29;101470.56;;;7.31;75.92
71504;BME280;59323;50.874;7.028;2023-01-30T12:12:58;101481.06;;;7.32;76.03
71504;BME280;59323;50.874;7.028;2023-01-30T12:20:51;101479.44;;;7.40;74.24
71504;BME280;59323;50.874;7.028;2023-01-30T12:23:47;101486.94;;;7.35;75.53
71504;BME280;59323;50.874;7.028;2023-01-30T12:26:19;101477.41;;;7.28;75.96
71504;BME280;59323;50.874;7.028;2023-01-30T12:29:02;101485.19;;;7.30;74.96
71504;BME280;59323;50.874;7.028;2023-01-30T12:34:08;101475.19;;;7.30;74.06
71504;BME280;59323;50.874;7.028;2023-01-30T12:39:41;101493.47;;;7.25;73.65
71504;BME280;59323;50.874;7.028;2023-01-30T12:45:22;101495.53;;;7.28;72.63
71504;BME280;59323;50.874;7.028;2023-01-30T13:04:28;101509.22;;;7.14;73.80
71504;BME280;59323;50.874;7.028;2023-01-30T13:12:27;101519.41;;;7.17;73.10
71504;BME280;59323;50.874;7.028;2023-01-30T13:15:31;101525.16;;;7.16;74.63
71504;BME280;59323;50.874;7.028;2023-01-30T13:20:49;101525.56;;;7.35;73.27
71504;BME280;59323;50.874;7.028;2023-01-30T13:26:01;101522.88;;;7.35;73.29
71504;BME280;59323;50.874;7.028;2023-01-30T13:28:33;101522.22;;;7.38;72.84
71504;BME280;59323;50.874;7.028;2023-01-30T13:31:01;101525.91;;;7.34;73.01
71504;BME280;59323;50.874;7.028;2023-01-30T13:33:35;101546.25;;;7.31;73.83
71504;BME280;59323;50.874;7.028;2023-01-30T13:36:09;101539.72;;;7.32;72.26
71504;BME280;59323;50.874;7.028;2023-01-30T13:38:40;101538.47;;;7.29;73.24
71504;BME280;59323;50.874;7.028;2023-01-30T13:41:11;101551.38;;;7.24;73.20
71504;BME280;59323;50.874;7.028;2023-01-30T13:43:40;101559.31;;;7.29;72.69
71504;BME280;59323;50.874;7.028;2023-01-30T13:46:10;101554.84;;;7.33;71.35
71504;BME280;59323;50.874;7.028;2023-01-30T13:51:46;101564.25;;;7.18;72.02
71504;BME280;59323;50.874;7.028;2023-01-30T13:57:30;101567.59;;;7.15;72.01
71504;BME280;59323;50.874;7.028;2023-01-30T14:00:30;101570.94;;;7.21;70.88
71504;BME280;59323;50.874;7.028;2023-01-30T14:08:23;101575.06;;;7.18;70.94
71504;BME280;59323;50.874;7.028;2023-01-30T14:10:52;101581.75;;;7.21;71.55
71504;BME280;59323;50.874;7.028;2023-01-30T14:13:23;101585.69;;;7.15;71.81
71504;BME280;59323;50.874;7.028;2023-01-30T14:15:54;101598.13;;;7.16;71.94
71504;BME280;59323;50.874;7.028;2023-01-30T14:21:15;101595.56;;;7.19;71.20
71504;BME280;59323;50.874;7.028;2023-01-30T14:24:16;101601.31;;;7.18;71.02
71504;BME280;59323;50.874;7.028;2023-01-30T14:40:00;101609.06;;;7.28;71.06
71504;BME280;59323;50.874;7.028;2023-01-30T14:42:28;101613.69;;;7.27;71.33
71504;BME280;59323;50.874;7.028;2023-01-30T14:44:57;101627.84;;;7.33;71.20
71504;BME280;59323;50.874;7.028;2023-01-30T14:47:23;101614.97;;;7.30;70.87
71504;BME280;59323;50.874;7.028;2023-01-30T14:49:49;101618.78;;;7.29;71.73
71504;BME280;59323;50.874;7.028;2023-01-30T14:52:29;101625.78;;;7.21;71.38
71504;BME280;59323;50.874;7.028;2023-01-30T14:54:56;101628.50;;;7.21;71.24
71504;BME280;59323;50.874;7.028;2023-01-30T14:57:24;101636.91;;;7.20;71.77
71504;BME280;59323;50.874;7.028;2023-01-30T14:59:57;101641.69;;;7.23;70.88
71504;BME280;59323;50.874;7.028;2023-01-30T15:02:26;101642.94;;;7.25;71.21
71504;BME280;59323;50.874;7.028;2023-01-30T15:04:55;101647.41;;;7.21;71.43
71504;BME280;59323;50.874;7.028;2023-01-30T15:07:26;101647.56;;;7.25;71.64
71504;BME280;59323;50.874;7.028;2023-01-30T15:10:03;101657.41;;;7.29;70.77
71504;BME280;59323;50.874;7.028;2023-01-30T15:15:50;101661.25;;;7.28;69.92
71504;BME280;59323;50.874;7.028;2023-01-30T15:24:24;101666.00;;;7.23;69.46
71504;BME280;59323;50.874;7.028;2023-01-30T15:27:12;101672.50;;;7.13;71.24
71504;BME280;59323;50.874;7.028;2023-01-30T15:32:26;101676.31;;;7.04;71.49
71504;BME280;59323;50.874;7.028;2023-01-30T15:34:57;101694.75;;;7.02;71.54
71504;BME280;59323;50.874;7.028;2023-01-30T15:37:29;101703.50;;;7.07;70.44